createdAt,value
2018-05-03T00:00:17.917Z,999.60
2018-05-03T00:01:17.937Z,999.62
2018-05-03T00:02:17.964Z,999.63
2018-05-03T00:03:17.995Z,999.61
2018-05-03T00:04:18.013Z,999.62
2018-05-03T00:05:18.055Z,999.62
2018-05-03T00:06:18.040Z,999.61
2018-05-03T00:07:18.062Z,999.63
2018-05-03T00:08:18.173Z,999.66
2018-05-03T00:09:18.106Z,999.61
2018-05-03T00:10:18.126Z,999.65
2018-05-03T00:11:18.154Z,999.63
2018-05-03T00:12:18.169Z,999.67
2018-05-03T00:13:18.244Z,999.73
2018-05-03T00:14:18.219Z,999.70
2018-05-03T00:15:18.226Z,999.74
2018-05-03T00:16:18.275Z,999.72
2018-05-03T00:17:18.275Z,999.76
2018-05-03T00:18:18.337Z,999.75
2018-05-03T00:19:18.310Z,999.77
2018-05-03T00:20:18.343Z,999.78
2018-05-03T00:21:18.357Z,999.74
2018-05-03T00:22:18.380Z,999.77
2018-05-03T00:23:18.393Z,999.78
2018-05-03T00:24:18.416Z,999.76
2018-05-03T00:25:18.437Z,999.82
2018-05-03T00:26:18.457Z,999.79
2018-05-03T00:27:18.484Z,999.77
2018-05-03T00:28:18.499Z,999.81
2018-05-03T00:29:18.520Z,999.80
2018-05-03T00:30:18.539Z,999.78
2018-05-03T00:31:18.561Z,999.81
2018-05-03T00:32:18.583Z,999.82
2018-05-03T00:33:18.599Z,999.77
2018-05-03T00:34:18.628Z,999.80
2018-05-03T00:35:18.643Z,999.75
2018-05-03T00:36:18.674Z,999.77
2018-05-03T00:37:18.683Z,999.77
2018-05-03T00:38:18.701Z,999.76
2018-05-03T00:39:18.721Z,999.76
2018-05-03T00:40:18.744Z,999.78
2018-05-03T00:41:18.767Z,999.80
2018-05-03T00:42:18.793Z,999.82
2018-05-03T00:43:18.806Z,999.83
2018-05-03T00:44:18.832Z,999.84
2018-05-03T00:45:18.880Z,999.80
2018-05-03T00:46:18.867Z,999.82
2018-05-03T00:47:18.891Z,999.86
2018-05-03T00:48:18.915Z,999.80
2018-05-03T00:49:18.934Z,999.83
2018-05-03T00:50:18.949Z,999.89
2018-05-03T00:51:18.974Z,999.85
2018-05-03T00:52:18.990Z,999.90
2018-05-03T00:53:19.010Z,999.88
2018-05-03T00:54:19.028Z,999.87
2018-05-03T00:55:19.061Z,999.88
2018-05-03T00:56:19.069Z,999.90
2018-05-03T00:57:19.096Z,999.85
2018-05-03T00:58:19.111Z,999.88
2018-05-03T00:59:19.137Z,999.89
2018-05-03T01:00:19.159Z,999.89
2018-05-03T01:01:19.173Z,999.89
2018-05-03T01:02:19.191Z,999.85
2018-05-03T01:03:19.221Z,999.86
2018-05-03T01:04:19.233Z,999.88
2018-05-03T01:05:19.266Z,999.87
2018-05-03T01:06:19.281Z,999.86
2018-05-03T01:07:19.299Z,999.90
2018-05-03T01:08:19.320Z,999.89
2018-05-03T01:09:19.345Z,999.91
2018-05-03T01:10:19.361Z,999.89
2018-05-03T01:11:19.377Z,999.90
2018-05-03T01:12:19.397Z,999.87
2018-05-03T01:13:19.427Z,999.89
2018-05-03T01:14:19.439Z,999.93
2018-05-03T01:15:19.462Z,999.91
2018-05-03T01:16:19.484Z,999.88
2018-05-03T01:17:19.506Z,999.88
2018-05-03T01:18:19.524Z,999.92
2018-05-03T01:19:19.541Z,999.93
2018-05-03T01:20:19.561Z,999.99
2018-05-03T01:21:19.603Z,999.93
2018-05-03T01:22:19.605Z,999.92
2018-05-03T01:23:19.627Z,999.94
2018-05-03T01:24:19.649Z,999.93
2018-05-03T01:25:19.673Z,999.92
2018-05-03T01:26:19.688Z,999.91
2018-05-03T01:27:19.707Z,999.96
2018-05-03T01:28:19.728Z,999.92
2018-05-03T01:29:19.746Z,999.94
2018-05-03T01:30:19.766Z,999.91
2018-05-03T01:31:19.791Z,999.92
2018-05-03T01:32:19.809Z,999.93
2018-05-03T01:33:19.832Z,999.91
2018-05-03T01:34:19.851Z,999.90
2018-05-03T01:35:19.871Z,999.89
2018-05-03T01:36:19.890Z,999.94
2018-05-03T01:37:19.919Z,999.96
2018-05-03T01:38:19.932Z,999.94
2018-05-03T01:39:19.950Z,999.99
2018-05-03T01:40:19.972Z,999.97
2018-05-03T01:41:19.997Z,999.95
2018-05-03T01:42:20.017Z,999.94
2018-05-03T01:43:20.038Z,999.96
2018-05-03T01:44:20.056Z,999.94
2018-05-03T01:45:20.075Z,999.98
2018-05-03T01:46:20.096Z,999.94
2018-05-03T01:47:20.117Z,999.94
2018-05-03T01:48:20.142Z,999.91
2018-05-03T01:49:20.158Z,999.92
2018-05-03T01:50:20.189Z,999.92
2018-05-03T01:51:20.206Z,999.95
2018-05-03T01:52:20.220Z,999.92
2018-05-03T01:53:20.248Z,999.93
2018-05-03T01:54:20.264Z,999.91
2018-05-03T01:55:20.286Z,999.96
2018-05-03T01:56:20.296Z,999.97
2018-05-03T01:57:20.328Z,999.97
2018-05-03T01:58:20.339Z,1000.00
2018-05-03T01:59:20.376Z,1000.03
2018-05-03T02:00:20.388Z,1000.04
2018-05-03T02:01:20.403Z,1000.04
2018-05-03T02:02:20.419Z,1000.09
2018-05-03T02:03:20.445Z,1000.07
2018-05-03T02:04:20.467Z,1000.06
2018-05-03T02:05:20.479Z,1000.05
2018-05-03T02:06:20.517Z,1000.03
2018-05-03T02:07:20.520Z,1000.05
2018-05-03T02:08:20.581Z,1000.03
2018-05-03T02:09:20.568Z,1000.04
2018-05-03T02:10:20.594Z,999.99
2018-05-03T02:11:20.620Z,999.95
2018-05-03T02:12:20.628Z,999.97
2018-05-03T02:13:20.644Z,1000.00
2018-05-03T02:14:20.668Z,1000.02
2018-05-03T02:15:20.686Z,1000.02
2018-05-03T02:16:20.709Z,1000.01
2018-05-03T02:17:20.729Z,1000.01
2018-05-03T02:18:20.748Z,999.96
2018-05-03T02:19:20.778Z,999.99
2018-05-03T02:20:20.786Z,999.95
2018-05-03T02:21:20.808Z,999.95
2018-05-03T02:22:20.824Z,999.96
2018-05-03T02:23:20.849Z,999.99
2018-05-03T02:24:20.868Z,999.98
2018-05-03T02:25:20.884Z,999.96
2018-05-03T02:26:20.913Z,1000.00
2018-05-03T02:27:20.935Z,1000.00
2018-05-03T02:28:20.949Z,1000.02
2018-05-03T02:29:20.972Z,1000.05
2018-05-03T02:30:20.988Z,1000.07
2018-05-03T02:31:21.012Z,1000.11
2018-05-03T02:32:21.037Z,1000.16
2018-05-03T02:33:21.060Z,1000.14
2018-05-03T02:34:21.070Z,1000.24
2018-05-03T02:35:21.095Z,1000.19
2018-05-03T02:36:21.107Z,1000.20
2018-05-03T02:37:21.135Z,1000.23
2018-05-03T02:38:21.155Z,1000.21
2018-05-03T02:39:21.174Z,1000.17
2018-05-03T02:40:21.188Z,1000.19
2018-05-03T02:41:21.216Z,1000.15
2018-05-03T02:42:21.251Z,1000.09
2018-05-03T02:43:21.257Z,1000.12
2018-05-03T02:44:21.275Z,1000.12
2018-05-03T02:45:21.296Z,1000.13
2018-05-03T02:46:21.320Z,1000.13
2018-05-03T02:47:21.334Z,1000.12
2018-05-03T02:48:21.348Z,1000.15
2018-05-03T02:49:21.373Z,1000.15
2018-05-03T02:50:21.399Z,1000.14
2018-05-03T02:51:21.414Z,1000.16
2018-05-03T02:52:21.432Z,1000.11
2018-05-03T02:53:21.449Z,1000.11
2018-05-03T02:54:21.476Z,1000.11
2018-05-03T02:55:21.495Z,1000.09
2018-05-03T02:56:21.523Z,1000.09
2018-05-03T02:57:21.540Z,1000.03
2018-05-03T02:58:21.550Z,1000.04
2018-05-03T02:59:21.566Z,999.95
2018-05-03T03:00:21.590Z,1000.00
2018-05-03T03:01:21.614Z,999.96
2018-05-03T03:02:21.710Z,999.94
2018-05-03T03:03:21.655Z,999.92
2018-05-03T03:04:21.686Z,999.97
2018-05-03T03:05:21.696Z,999.93
2018-05-03T03:06:21.716Z,1000.03
2018-05-03T03:07:21.743Z,1000.04
2018-05-03T03:08:21.750Z,1000.09
2018-05-03T03:09:21.779Z,1000.13
2018-05-03T03:10:21.789Z,1000.19
2018-05-03T03:11:21.815Z,1000.17
2018-05-03T03:12:21.833Z,1000.18
2018-05-03T03:13:21.869Z,1000.19
2018-05-03T03:14:21.875Z,1000.21
2018-05-03T03:15:21.888Z,1000.20
2018-05-03T03:16:21.912Z,1000.24
2018-05-03T03:17:21.935Z,1000.23
2018-05-03T03:18:21.960Z,1000.19
2018-05-03T03:19:21.971Z,1000.18
2018-05-03T03:20:21.997Z,1000.21
2018-05-03T03:21:22.011Z,1000.22
2018-05-03T03:22:22.036Z,1000.22
2018-05-03T03:23:22.065Z,1000.23
2018-05-03T03:24:22.076Z,1000.31
2018-05-03T03:25:22.092Z,1000.30
2018-05-03T03:26:22.121Z,1000.29
2018-05-03T03:27:22.145Z,1000.30
2018-05-03T03:28:22.156Z,1000.34
2018-05-03T03:29:22.180Z,1000.34
2018-05-03T03:30:22.200Z,1000.35
2018-05-03T03:31:22.212Z,1000.34
2018-05-03T03:32:22.237Z,1000.37
2018-05-03T03:33:22.259Z,1000.34
2018-05-03T03:34:22.276Z,1000.35
2018-05-03T03:35:22.297Z,1000.33
2018-05-03T03:36:22.344Z,1000.33
2018-05-03T03:37:22.336Z,1000.31
2018-05-03T03:38:22.356Z,1000.34
2018-05-03T03:39:22.377Z,1000.32
2018-05-03T03:40:22.410Z,1000.28
2018-05-03T03:41:22.421Z,1000.29
2018-05-03T03:42:22.431Z,1000.27
2018-05-03T03:43:22.457Z,1000.28
2018-05-03T03:44:22.480Z,1000.30
2018-05-03T03:45:22.498Z,1000.33
2018-05-03T03:46:22.522Z,1000.34
2018-05-03T03:47:22.554Z,1000.27
2018-05-03T03:48:22.555Z,1000.28
2018-05-03T03:49:22.580Z,1000.28
2018-05-03T03:50:22.602Z,1000.28
2018-05-03T03:51:22.616Z,1000.26
2018-05-03T03:52:22.642Z,1000.29
2018-05-03T03:53:22.684Z,1000.25
2018-05-03T03:54:22.673Z,1000.28
2018-05-03T03:55:22.699Z,1000.29
2018-05-03T03:56:22.718Z,1000.28
2018-05-03T03:57:22.738Z,1000.33
2018-05-03T03:58:22.766Z,1000.36
2018-05-03T03:59:22.779Z,1000.32
2018-05-03T04:00:22.797Z,1000.34
2018-05-03T04:01:22.817Z,1000.34
2018-05-03T04:02:22.840Z,1000.31
2018-05-03T04:03:22.857Z,1000.31
2018-05-03T04:04:22.875Z,1000.31
2018-05-03T04:05:22.924Z,1000.34
2018-05-03T04:06:22.926Z,1000.29
2018-05-03T04:07:22.934Z,1000.30
2018-05-03T04:08:22.953Z,1000.28
2018-05-03T04:09:22.979Z,1000.28
2018-05-03T04:10:22.993Z,1000.28
2018-05-03T04:11:23.015Z,1000.27
2018-05-03T04:12:23.042Z,1000.27
2018-05-03T04:13:23.057Z,1000.25
2018-05-03T04:14:23.081Z,1000.24
2018-05-03T04:15:23.099Z,1000.25
2018-05-03T04:16:23.193Z,1000.25
2018-05-03T04:17:23.143Z,1000.27
2018-05-03T04:18:23.163Z,1000.28
2018-05-03T04:19:23.175Z,1000.26
2018-05-03T04:20:23.190Z,1000.26
2018-05-03T04:21:23.213Z,1000.26
2018-05-03T04:22:23.397Z,1000.27
2018-05-03T04:23:23.284Z,1000.26
2018-05-03T04:24:23.271Z,1000.29
2018-05-03T04:25:23.294Z,1000.28
2018-05-03T04:26:23.316Z,1000.32
2018-05-03T04:27:23.335Z,1000.34
2018-05-03T04:28:23.355Z,1000.37
2018-05-03T04:29:23.371Z,1000.34
2018-05-03T04:30:23.398Z,1000.34
2018-05-03T04:31:23.413Z,1000.34
2018-05-03T04:32:23.439Z,1000.36
2018-05-03T04:33:23.451Z,1000.35
2018-05-03T04:34:23.474Z,1000.35
2018-05-03T04:35:23.501Z,1000.36
2018-05-03T04:36:23.520Z,1000.37
2018-05-03T04:37:23.542Z,1000.41
2018-05-03T04:38:23.553Z,1000.43
2018-05-03T04:39:23.580Z,1000.42
2018-05-03T04:40:23.607Z,1000.45
2018-05-03T04:41:23.649Z,1000.47
2018-05-03T04:42:23.633Z,1000.45
2018-05-03T04:43:23.661Z,1000.48
2018-05-03T04:44:23.687Z,1000.44
2018-05-03T04:45:23.703Z,1000.46
2018-05-03T04:46:23.709Z,1000.51
2018-05-03T04:47:23.740Z,1000.51
2018-05-03T04:48:23.760Z,1000.52
2018-05-03T04:49:23.780Z,1000.55
2018-05-03T04:50:23.800Z,1000.53
2018-05-03T04:51:23.853Z,1000.60
2018-05-03T04:52:23.836Z,1000.58
2018-05-03T04:53:23.863Z,1000.62
2018-05-03T04:54:23.870Z,1000.65
2018-05-03T04:55:23.901Z,1000.59
2018-05-03T04:56:23.920Z,1000.62
2018-05-03T04:57:23.929Z,1000.65
2018-05-03T04:58:23.951Z,1000.64
2018-05-03T04:59:23.976Z,1000.64
2018-05-03T05:00:23.999Z,1000.66
2018-05-03T05:01:24.013Z,1000.67
2018-05-03T05:02:24.036Z,1000.65
2018-05-03T05:03:24.058Z,1000.61
2018-05-03T05:04:24.076Z,1000.61
2018-05-03T05:05:24.097Z,1000.62
2018-05-03T05:06:24.119Z,1000.61
2018-05-03T05:07:24.153Z,1000.62
2018-05-03T05:08:24.224Z,1000.63
2018-05-03T05:09:24.178Z,1000.63
2018-05-03T05:10:24.201Z,1000.66
2018-05-03T05:11:24.221Z,1000.66
2018-05-03T05:12:24.234Z,1000.71
2018-05-03T05:13:24.256Z,1000.70
2018-05-03T05:14:24.302Z,1000.68
2018-05-03T05:15:24.308Z,1000.72
2018-05-03T05:16:24.313Z,1000.72
2018-05-03T05:17:24.342Z,1000.75
2018-05-03T05:18:24.375Z,1000.75
2018-05-03T05:19:24.374Z,1000.77
2018-05-03T05:20:24.414Z,1000.78
2018-05-03T05:21:24.419Z,1000.77
2018-05-03T05:22:24.456Z,1000.80
2018-05-03T05:23:24.452Z,1000.82
2018-05-03T05:24:24.482Z,1000.83
2018-05-03T05:25:24.499Z,1000.79
2018-05-03T05:26:24.525Z,1000.86
2018-05-03T05:27:24.539Z,1000.84
2018-05-03T05:28:24.559Z,1000.83
2018-05-03T05:29:24.579Z,1000.85
2018-05-03T05:30:24.592Z,1000.80
2018-05-03T05:31:24.621Z,1000.83
2018-05-03T05:32:24.720Z,1000.81
2018-05-03T05:33:24.661Z,1000.81
2018-05-03T05:34:24.682Z,1000.84
2018-05-03T05:35:24.695Z,1000.89
2018-05-03T05:36:24.725Z,1000.87
2018-05-03T05:37:24.739Z,1000.88
2018-05-03T05:38:24.774Z,1000.91
2018-05-03T05:39:24.781Z,1000.93
2018-05-03T05:40:24.821Z,1000.92
2018-05-03T05:41:24.825Z,1000.94
2018-05-03T05:42:24.837Z,1000.96
2018-05-03T05:43:24.858Z,1000.97
2018-05-03T05:44:24.901Z,1000.98
2018-05-03T05:45:24.897Z,1001.01
2018-05-03T05:46:24.922Z,1001.04
2018-05-03T05:47:24.944Z,1001.04
2018-05-03T05:48:24.957Z,1001.07
2018-05-03T05:49:24.989Z,1001.05
2018-05-03T05:50:24.997Z,1001.09
2018-05-03T05:51:25.017Z,1001.12
2018-05-03T05:52:25.045Z,1001.16
2018-05-03T05:53:25.059Z,1001.15
2018-05-03T05:54:25.093Z,1001.15
2018-05-03T05:55:25.107Z,1001.18
2018-05-03T05:56:25.119Z,1001.17
2018-05-03T05:57:25.158Z,1001.20
2018-05-03T05:58:25.162Z,1001.18
2018-05-03T05:59:25.184Z,1001.19
2018-05-03T06:00:25.207Z,1001.20
2018-05-03T06:01:25.220Z,1001.18
2018-05-03T06:02:25.248Z,1001.14
2018-05-03T06:03:25.256Z,1001.19
2018-05-03T06:04:25.283Z,1001.16
2018-05-03T06:05:25.317Z,1001.17
2018-05-03T06:06:25.328Z,1001.21
2018-05-03T06:07:25.347Z,1001.17
2018-05-03T06:08:25.369Z,1001.23
2018-05-03T06:09:25.400Z,1001.25
2018-05-03T06:10:25.435Z,1001.24
2018-05-03T06:11:25.429Z,1001.24
2018-05-03T06:12:25.509Z,1001.29
2018-05-03T06:13:25.460Z,1001.30
2018-05-03T06:14:25.488Z,1001.32
2018-05-03T06:15:25.503Z,1001.33
2018-05-03T06:16:25.527Z,1001.32
2018-05-03T06:17:25.548Z,1001.35
2018-05-03T06:18:25.590Z,1001.40
2018-05-03T06:19:25.589Z,1001.45
2018-05-03T06:20:25.605Z,1001.47
2018-05-03T06:21:25.626Z,1001.43
2018-05-03T06:22:25.646Z,1001.51
2018-05-03T06:23:25.669Z,1001.49
2018-05-03T06:24:25.689Z,1001.54
2018-05-03T06:25:25.712Z,1001.55
2018-05-03T06:26:25.730Z,1001.57
2018-05-03T06:27:25.752Z,1001.56
2018-05-03T06:28:25.767Z,1001.56
2018-05-03T06:29:25.795Z,1001.54
2018-05-03T06:30:25.814Z,1001.52
2018-05-03T06:31:25.831Z,1001.54
2018-05-03T06:32:25.852Z,1001.54
2018-05-03T06:33:25.876Z,1001.52
2018-05-03T06:34:25.893Z,1001.57
2018-05-03T06:35:25.914Z,1001.57
2018-05-03T06:36:25.933Z,1001.56
2018-05-03T06:37:25.960Z,1001.62
2018-05-03T06:38:25.979Z,1001.62
2018-05-03T06:39:25.992Z,1001.62
2018-05-03T06:40:26.022Z,1001.65
2018-05-03T06:41:26.038Z,1001.71
2018-05-03T06:42:26.054Z,1001.73
2018-05-03T06:43:26.084Z,1001.73
2018-05-03T06:44:26.101Z,1001.76
2018-05-03T06:45:26.153Z,1001.76
2018-05-03T06:46:26.141Z,1001.77
2018-05-03T06:47:26.168Z,1001.79
2018-05-03T06:48:26.176Z,1001.78
2018-05-03T06:49:26.201Z,1001.80
2018-05-03T06:50:26.220Z,1001.78
2018-05-03T06:51:26.292Z,1001.80
2018-05-03T06:52:26.258Z,1001.77
2018-05-03T06:53:26.276Z,1001.80
2018-05-03T06:54:26.299Z,1001.85
2018-05-03T06:55:26.328Z,1001.87
2018-05-03T06:56:26.339Z,1001.90
2018-05-03T06:57:26.361Z,1001.93
2018-05-03T06:58:26.380Z,1001.95
2018-05-03T06:59:26.400Z,1001.92
2018-05-03T07:00:26.421Z,1001.97
2018-05-03T07:01:26.447Z,1001.95
2018-05-03T07:02:26.459Z,1001.94
2018-05-03T07:03:26.493Z,1001.89
2018-05-03T07:04:26.568Z,1001.94
2018-05-03T07:05:26.530Z,1001.92
2018-05-03T07:06:26.553Z,1001.91
2018-05-03T07:07:26.570Z,1001.93
2018-05-03T07:08:26.591Z,1001.93
2018-05-03T07:09:26.613Z,1001.94
2018-05-03T07:10:26.629Z,1001.99
2018-05-03T07:11:26.652Z,1002.01
2018-05-03T07:12:26.673Z,1002.02
2018-05-03T07:13:26.687Z,1002.03
2018-05-03T07:14:26.714Z,1002.01
2018-05-03T07:15:26.731Z,1002.01
2018-05-03T07:16:26.758Z,1001.99
2018-05-03T07:17:26.778Z,1002.01
2018-05-03T07:18:26.791Z,1001.99
2018-05-03T07:19:26.816Z,1001.99
2018-05-03T07:20:26.833Z,1002.05
2018-05-03T07:21:26.859Z,1002.07
2018-05-03T07:22:26.872Z,1002.07
2018-05-03T07:23:26.899Z,1002.08
2018-05-03T07:24:26.923Z,1002.06
2018-05-03T07:25:26.945Z,1002.08
2018-05-03T07:26:26.960Z,1002.08
2018-05-03T07:27:26.979Z,1002.05
2018-05-03T07:28:26.996Z,1002.07
2018-05-03T07:29:27.087Z,1002.07
2018-05-03T07:30:27.050Z,1002.03
2018-05-03T07:31:27.080Z,1002.06
2018-05-03T07:32:27.088Z,1002.08
2018-05-03T07:33:27.111Z,1002.13
2018-05-03T07:34:27.127Z,1002.13
2018-05-03T07:35:27.146Z,1002.14
2018-05-03T07:36:27.173Z,1002.15
2018-05-03T07:37:27.195Z,1002.16
2018-05-03T07:38:27.208Z,1002.19
2018-05-03T07:39:27.232Z,1002.21
2018-05-03T07:40:27.282Z,1002.21
2018-05-03T07:41:27.271Z,1002.26
2018-05-03T07:42:27.292Z,1002.22
2018-05-03T07:43:27.318Z,1002.25
2018-05-03T07:44:27.334Z,1002.27
2018-05-03T07:45:27.358Z,1002.28
2018-05-03T07:46:27.376Z,1002.25
2018-05-03T07:47:27.401Z,1002.28
2018-05-03T07:48:27.442Z,1002.29
2018-05-03T07:49:27.438Z,1002.29
2018-05-03T07:50:27.463Z,1002.31
2018-05-03T07:51:27.479Z,1002.35
2018-05-03T07:52:27.503Z,1002.34
2018-05-03T07:53:27.529Z,1002.33
2018-05-03T07:54:27.547Z,1002.37
2018-05-03T07:55:27.575Z,1002.39
2018-05-03T07:56:27.616Z,1002.37
2018-05-03T07:57:27.605Z,1002.35
2018-05-03T07:58:27.629Z,1002.37
2018-05-03T07:59:27.654Z,1002.36
2018-05-03T08:00:27.674Z,1002.36
2018-05-03T08:01:27.699Z,1002.34
2018-05-03T08:02:27.738Z,1002.30
2018-05-03T08:03:27.735Z,1002.31
2018-05-03T08:04:27.756Z,1002.33
2018-05-03T08:05:27.777Z,1002.31
2018-05-03T08:06:27.797Z,1002.33
2018-05-03T08:07:27.819Z,1002.37
2018-05-03T08:08:27.847Z,1002.35
2018-05-03T08:09:27.862Z,1002.37
2018-05-03T08:10:27.885Z,1002.34
2018-05-03T08:11:27.904Z,1002.36
2018-05-03T08:12:27.927Z,1002.37
2018-05-03T08:13:27.943Z,1002.35
2018-05-03T08:14:27.962Z,1002.32
2018-05-03T08:15:27.988Z,1002.35
2018-05-03T08:16:28.017Z,1002.37
2018-05-03T08:17:28.037Z,1002.35
2018-05-03T08:18:28.050Z,1002.33
2018-05-03T08:19:28.068Z,1002.34
2018-05-03T08:20:28.095Z,1002.34
2018-05-03T08:21:28.122Z,1002.34
2018-05-03T08:22:28.219Z,1002.36
2018-05-03T08:23:28.158Z,1002.35
2018-05-03T08:24:28.175Z,1002.36
2018-05-03T08:25:28.203Z,1002.34
2018-05-03T08:26:28.216Z,1002.38
2018-05-03T08:27:28.250Z,1002.43
2018-05-03T08:28:28.360Z,1002.45
2018-05-03T08:29:28.284Z,1002.41
2018-05-03T08:30:28.317Z,1002.47
2018-05-03T08:31:28.324Z,1002.48
2018-05-03T08:32:28.350Z,1002.51
2018-05-03T08:33:28.365Z,1002.53
2018-05-03T08:34:28.391Z,1002.60
2018-05-03T08:35:28.419Z,1002.61
2018-05-03T08:36:28.437Z,1002.58
2018-05-03T08:37:28.458Z,1002.62
2018-05-03T08:38:28.474Z,1002.63
2018-05-03T08:39:28.496Z,1002.67
2018-05-03T08:40:28.517Z,1002.65
2018-05-03T08:41:28.544Z,1002.68
2018-05-03T08:42:28.568Z,1002.69
2018-05-03T08:43:28.584Z,1002.75
2018-05-03T08:44:28.631Z,1002.72
2018-05-03T08:45:28.628Z,1002.71
2018-05-03T08:46:28.648Z,1002.75
2018-05-03T08:47:28.668Z,1002.74
2018-05-03T08:48:28.685Z,1002.76
2018-05-03T08:49:28.707Z,1002.73
2018-05-03T08:50:28.726Z,1002.78
2018-05-03T08:51:28.752Z,1002.77
2018-05-03T08:52:28.774Z,1002.76
2018-05-03T08:53:28.792Z,1002.76
2018-05-03T08:54:28.813Z,1002.74
2018-05-03T08:55:28.839Z,1002.76
2018-05-03T08:56:28.857Z,1002.80
2018-05-03T08:57:28.885Z,1002.76
2018-05-03T08:58:28.912Z,1002.77
2018-05-03T08:59:28.926Z,1002.76
2018-05-03T09:00:28.954Z,1002.75
2018-05-03T09:01:28.973Z,1002.71
2018-05-03T09:02:28.997Z,1002.73
2018-05-03T09:03:29.016Z,1002.75
2018-05-03T09:04:29.032Z,1002.75
2018-05-03T09:05:29.060Z,1002.76
2018-05-03T09:06:29.074Z,1002.77
2018-05-03T09:07:29.141Z,1002.74
2018-05-03T09:08:29.160Z,1002.78
2018-05-03T09:09:29.146Z,1002.76
2018-05-03T09:10:29.167Z,1002.76
2018-05-03T09:11:29.186Z,1002.75
2018-05-03T09:12:29.207Z,1002.78
2018-05-03T09:13:29.223Z,1002.75
2018-05-03T09:14:29.257Z,1002.78
2018-05-03T09:15:29.275Z,1002.77
2018-05-03T09:16:29.296Z,1002.79
2018-05-03T09:17:29.320Z,1002.78
2018-05-03T09:18:29.337Z,1002.80
2018-05-03T09:19:29.354Z,1002.82
2018-05-03T09:20:29.380Z,1002.88
2018-05-03T09:21:29.404Z,1002.78
2018-05-03T09:22:29.471Z,1002.86
2018-05-03T09:23:29.459Z,1002.84
2018-05-03T09:24:29.482Z,1002.88
2018-05-03T09:25:29.492Z,1002.88
2018-05-03T09:26:29.516Z,1002.87
2018-05-03T09:27:29.533Z,1002.89
2018-05-03T09:28:29.556Z,1002.91
2018-05-03T09:29:29.578Z,1002.90
2018-05-03T09:30:29.601Z,1002.92
2018-05-03T09:31:29.620Z,1002.94
2018-05-03T09:32:29.644Z,1002.98
2018-05-03T09:33:29.674Z,1002.97
2018-05-03T09:34:29.707Z,1003.00
2018-05-03T09:35:29.718Z,1002.98
2018-05-03T09:36:29.735Z,1002.98
2018-05-03T09:37:29.755Z,1002.98
2018-05-03T09:38:29.778Z,1003.03
2018-05-03T09:39:29.802Z,1002.99
2018-05-03T09:40:29.824Z,1003.04
2018-05-03T09:41:29.861Z,1003.03
2018-05-03T09:42:29.867Z,1003.00
2018-05-03T09:43:29.891Z,1003.04
2018-05-03T09:44:29.995Z,1003.03
2018-05-03T09:45:29.934Z,1003.02
2018-05-03T09:46:29.955Z,1003.08
2018-05-03T09:47:29.980Z,1003.08
2018-05-03T09:48:30.004Z,1003.10
2018-05-03T09:49:30.026Z,1003.07
2018-05-03T09:50:30.044Z,1003.09
2018-05-03T09:51:30.069Z,1003.09
2018-05-03T09:52:30.112Z,1003.07
2018-05-03T09:53:30.114Z,1003.05
2018-05-03T09:54:30.130Z,1003.05
2018-05-03T09:55:30.159Z,1003.02
2018-05-03T09:56:30.181Z,1003.03
2018-05-03T09:57:30.201Z,1003.04
2018-05-03T09:58:30.227Z,1003.04
2018-05-03T09:59:30.267Z,1003.07
2018-05-03T10:00:30.270Z,1003.02
2018-05-03T10:01:30.289Z,1003.02
2018-05-03T10:02:30.317Z,1003.05
2018-05-03T10:03:30.341Z,1003.06
2018-05-03T10:04:30.361Z,1003.08
2018-05-03T10:05:30.385Z,1003.06
2018-05-03T10:06:30.416Z,1003.07
2018-05-03T10:07:30.426Z,1003.00
2018-05-03T10:08:30.454Z,1003.05
2018-05-03T10:09:30.476Z,1003.07
2018-05-03T10:10:30.501Z,1003.09
2018-05-03T10:11:30.532Z,1003.11
2018-05-03T10:12:30.544Z,1003.10
2018-05-03T10:13:30.567Z,1003.12
2018-05-03T10:14:30.609Z,1003.11
2018-05-03T10:15:30.606Z,1003.09
2018-05-03T10:16:30.632Z,1003.11
2018-05-03T10:17:30.652Z,1003.14
2018-05-03T10:18:30.685Z,1003.12
2018-05-03T10:19:30.708Z,1003.10
2018-05-03T10:20:30.725Z,1003.13
2018-05-03T10:21:30.745Z,1003.12
2018-05-03T10:22:30.846Z,1003.10
2018-05-03T10:23:30.792Z,1003.12
2018-05-03T10:24:30.815Z,1003.14
2018-05-03T10:25:30.836Z,1003.15
2018-05-03T10:26:30.856Z,1003.13
2018-05-03T10:27:30.882Z,1003.15
2018-05-03T10:28:30.902Z,1003.13
2018-05-03T10:29:30.936Z,1003.11
2018-05-03T10:30:30.947Z,1003.18
2018-05-03T10:31:30.978Z,1003.20
2018-05-03T10:32:31.003Z,1003.15
2018-05-03T10:33:31.019Z,1003.20
2018-05-03T10:34:31.036Z,1003.17
2018-05-03T10:35:31.067Z,1003.17
2018-05-03T10:36:31.084Z,1003.16
2018-05-03T10:37:31.111Z,1003.16
2018-05-03T10:38:31.132Z,1003.18
2018-05-03T10:39:31.154Z,1003.18
2018-05-03T10:40:31.173Z,1003.14
2018-05-03T10:41:31.207Z,1003.12
2018-05-03T10:42:31.222Z,1003.14
2018-05-03T10:43:31.240Z,1003.12
2018-05-03T10:44:31.275Z,1003.08
2018-05-03T10:45:31.298Z,1003.06
2018-05-03T10:46:31.313Z,1003.07
2018-05-03T10:47:31.343Z,1003.06
2018-05-03T10:48:31.361Z,1003.09
2018-05-03T10:49:31.386Z,1003.09
2018-05-03T10:50:31.407Z,1003.04
2018-05-03T10:51:31.432Z,1003.02
2018-05-03T10:52:31.453Z,1002.99
2018-05-03T10:53:31.482Z,1003.03
2018-05-03T10:54:31.507Z,1003.00
2018-05-03T10:55:31.526Z,1003.00
2018-05-03T10:56:31.547Z,1003.00
2018-05-03T10:57:31.611Z,1003.04
2018-05-03T10:58:31.588Z,1002.99
2018-05-03T10:59:31.613Z,1002.97
2018-05-03T11:00:31.645Z,1003.00
2018-05-03T11:01:31.659Z,1002.94
2018-05-03T11:02:31.685Z,1003.02
2018-05-03T11:03:31.706Z,1002.97
2018-05-03T11:04:31.727Z,1003.03
2018-05-03T11:05:31.934Z,1003.05
2018-05-03T11:06:31.784Z,1003.04
2018-05-03T11:07:31.800Z,1003.05
2018-05-03T11:08:31.826Z,1003.03
2018-05-03T11:09:31.847Z,1003.04
2018-05-03T11:10:31.867Z,1003.07
2018-05-03T11:11:31.894Z,1003.05
2018-05-03T11:12:31.917Z,1003.01
2018-05-03T11:13:31.942Z,1003.02
2018-05-03T11:14:31.961Z,1003.01
2018-05-03T11:15:31.992Z,1002.98
2018-05-03T11:16:32.013Z,1002.97
2018-05-03T11:17:32.027Z,1002.92
2018-05-03T11:18:32.061Z,1002.89
2018-05-03T11:19:32.074Z,1002.94
2018-05-03T11:20:32.110Z,1002.92
2018-05-03T11:21:32.130Z,1002.90
2018-05-03T11:22:32.163Z,1002.94
2018-05-03T11:23:32.175Z,1002.99
2018-05-03T11:24:32.203Z,1002.99
2018-05-03T11:25:32.231Z,1002.93
2018-05-03T11:26:32.240Z,1002.92
2018-05-03T11:27:32.272Z,1002.91
2018-05-03T11:28:32.291Z,1002.93
2018-05-03T11:29:32.320Z,1002.82
2018-05-03T11:30:32.372Z,1002.85
2018-05-03T11:31:32.405Z,1002.83
2018-05-03T11:32:32.386Z,1002.85
2018-05-03T11:33:32.403Z,1002.84
2018-05-03T11:34:32.434Z,1002.79
2018-05-03T11:35:32.452Z,1002.77
2018-05-03T11:36:32.482Z,1002.80
2018-05-03T11:37:32.608Z,1002.78
2018-05-03T11:38:32.537Z,1002.74
2018-05-03T11:39:32.546Z,1002.79
2018-05-03T11:40:32.576Z,1002.76
2018-05-03T11:41:32.593Z,1002.79
2018-05-03T11:42:32.681Z,1002.81
2018-05-03T11:43:32.656Z,1002.81
2018-05-03T11:44:32.667Z,1002.82
2018-05-03T11:45:32.689Z,1002.80
2018-05-03T11:46:32.715Z,1002.77
2018-05-03T11:47:32.741Z,1002.70
2018-05-03T11:48:32.763Z,1002.78
2018-05-03T11:49:32.787Z,1002.72
2018-05-03T11:50:32.813Z,1002.68
2018-05-03T11:51:32.831Z,1002.68
2018-05-03T11:52:32.865Z,1002.72
2018-05-03T11:53:32.883Z,1002.70
2018-05-03T11:54:32.911Z,1002.69
2018-05-03T11:55:32.930Z,1002.71
2018-05-03T11:56:32.955Z,1002.68
2018-05-03T11:57:32.969Z,1002.74
2018-05-03T11:58:33.002Z,1002.75
2018-05-03T11:59:33.021Z,1002.73
2018-05-03T12:00:33.050Z,1002.73
2018-05-03T12:01:33.075Z,1002.74
2018-05-03T12:02:33.099Z,1002.68
2018-05-03T12:03:33.116Z,1002.70
2018-05-03T12:04:33.144Z,1002.66
2018-05-03T12:05:33.173Z,1002.68
2018-05-03T12:06:33.194Z,1002.63
2018-05-03T12:07:33.219Z,1002.62
2018-05-03T12:08:33.289Z,1002.60
2018-05-03T12:09:33.268Z,1002.66